Time;durP1;ratioP1;P1;durP2;ratioP2;P2;SDS_P1;SDS_P2;PMS_P1;PMS_P2;Temp;Humidity;BMP_temperature;BMP_pressure;BME280_temperature;BME280_humidity;BME280_pressure;Samples;Min_cycle;Max_cycle;Signal;HPM_P1;HPM_P2
2022/03/23 00:02:26;;;;;;;8.63;7.57;;;17.40;44.40;;;;;;5128115;28;20047;-72
2022/03/23 00:04:53;;;;;;;8.55;7.18;;;17.40;44.30;;;;;;5128466;27;20079;-73
2022/03/23 00:07:22;;;;;;;8.85;7.95;;;17.40;44.40;;;;;;5127265;28;20035;-72
2022/03/23 00:09:48;;;;;;;8.57;7.70;;;17.40;44.30;;;;;;5128603;27;20043;-74
2022/03/23 00:12:15;;;;;;;10.50;8.60;;;17.40;44.30;;;;;;5127375;28;20081;-71
2022/03/23 00:14:41;;;;;;;10.55;8.63;;;17.30;44.30;;;;;;5115710;27;20386;-73
2022/03/23 00:17:07;;;;;;;8.85;7.95;;;17.40;44.30;;;;;;5113777;28;20035;-72
2022/03/23 00:19:36;;;;;;;9.27;7.68;;;17.30;44.30;;;;;;5115058;28;20039;-74
2022/03/23 00:22:03;;;;;;;9.80;8.02;;;17.30;44.30;;;;;;5113373;27;20057;-74
2022/03/23 00:24:28;;;;;;;11.05;8.18;;;17.40;44.30;;;;;;5112359;28;20044;-74
2022/03/23 00:26:57;;;;;;;9.73;8.10;;;17.30;44.30;;;;;;5112985;28;20046;-73
2022/03/23 00:29:22;;;;;;;10.25;8.50;;;17.30;44.40;;;;;;5113084;28;20043;-72
2022/03/23 00:31:51;;;;;;;10.45;8.10;;;17.30;44.30;;;;;;5114624;28;20044;-74
2022/03/23 00:34:17;;;;;;;9.15;7.13;;;17.30;44.40;;;;;;5114223;28;20144;-72
2022/03/23 00:36:43;;;;;;;8.30;7.43;;;17.20;44.30;;;;;;5113156;28;20512;-74
2022/03/23 00:39:08;;;;;;;9.95;8.07;;;17.20;44.30;;;;;;5114446;28;20050;-74
2022/03/23 00:41:37;;;;;;;8.75;7.95;;;17.20;44.30;;;;;;5112958;28;20036;-72
2022/03/23 00:44:05;;;;;;;10.40;8.27;;;17.20;44.30;;;;;;5113906;28;20069;-73
2022/03/23 00:46:31;;;;;;;9.48;7.22;;;17.20;44.30;;;;;;5112963;28;20119;-73
2022/03/23 00:48:57;;;;;;;7.85;7.05;;;17.20;44.30;;;;;;5114073;28;20542;-72
2022/03/23 00:51:22;;;;;;;9.65;8.10;;;17.20;44.30;;;;;;5112856;28;20072;-72
2022/03/23 00:53:48;;;;;;;8.70;7.80;;;17.10;44.20;;;;;;5113949;28;20066;-72
2022/03/23 00:56:14;;;;;;;8.35;7.50;;;17.10;44.30;;;;;;5113645;28;20031;-74
2022/03/23 00:58:39;;;;;;;9.35;8.13;;;17.10;44.30;;;;;;5112836;28;20122;-73
2022/03/23 01:01:08;;;;;;;10.50;8.65;;;17.10;44.20;;;;;;5095570;28;20461;-74
2022/03/23 01:03:34;;;;;;;9.15;7.90;;;17.10;44.20;;;;;;5111798;28;20543;-73
2022/03/23 01:05:59;;;;;;;9.15;7.70;;;17.10;44.30;;;;;;5111770;28;20044;-72
2022/03/23 01:08:25;;;;;;;8.98;7.55;;;17.00;44.20;;;;;;5111899;28;20111;-74
2022/03/23 01:10:51;;;;;;;10.80;7.75;;;17.00;44.20;;;;;;5113954;28;20114;-74
2022/03/23 01:13:17;;;;;;;9.80;8.50;;;17.00;44.20;;;;;;5113109;28;20039;-74
2022/03/23 01:15:42;;;;;;;8.45;7.60;;;17.00;44.20;;;;;;5112324;28;20043;-74
2022/03/23 01:18:09;;;;;;;9.25;8.35;;;17.00;44.20;;;;;;5113657;28;20046;-74
2022/03/23 01:20:36;;;;;;;9.43;7.90;;;17.00;44.20;;;;;;5113430;28;20391;-72
2022/03/23 01:23:03;;;;;;;8.65;7.85;;;17.00;44.20;;;;;;5111780;28;20039;-72
2022/03/23 01:25:29;;;;;;;9.68;8.77;;;17.00;44.20;;;;;;5112199;28;20051;-72
2022/03/23 01:27:56;;;;;;;9.82;8.82;;;17.00;44.20;;;;;;5113504;28;20036;-74
2022/03/23 01:30:26;;;;;;;9.80;7.97;;;16.90;44.20;;;;;;5111370;28;20483;-74
2022/03/23 01:32:54;;;;;;;10.00;7.50;;;16.90;44.20;;;;;;5112185;28;20051;-74
2022/03/23 01:35:20;;;;;;;9.40;7.72;;;16.90;44.20;;;;;;5111948;28;20497;-74
2022/03/23 01:37:49;;;;;;;9.82;8.48;;;16.90;44.20;;;;;;5112223;28;20039;-72
2022/03/23 01:40:14;;;;;;;8.73;7.82;;;16.90;44.20;;;;;;5112993;28;20390;-74
2022/03/23 01:42:41;;;;;;;8.57;7.75;;;16.90;44.20;;;;;;5111338;28;20044;-74
2022/03/23 01:45:08;;;;;;;9.68;7.88;;;16.80;44.10;;;;;;5111247;28;20048;-74
2022/03/23 01:47:34;;;;;;;8.80;7.90;;;16.80;44.20;;;;;;5110842;28;20039;-72
2022/03/23 01:50:00;;;;;;;9.05;7.65;;;16.80;44.10;;;;;;5111244;28;20399;-71
2022/03/23 01:52:29;;;;;;;9.63;8.65;;;16.80;44.10;;;;;;5111327;28;20054;-72
2022/03/23 01:54:55;;;;;;;9.77;8.77;;;16.80;44.10;;;;;;5112390;28;20566;-74
2022/03/23 01:57:22;;;;;;;8.68;7.80;;;16.80;44.10;;;;;;5113053;28;20051;-74
2022/03/23 01:59:51;;;;;;;8.95;8.05;;;16.80;44.20;;;;;;5112698;28;20031;-74
2022/03/23 02:02:20;;;;;;;8.88;7.93;;;16.80;44.20;;;;;;5111674;28;20501;-72
2022/03/23 02:04:45;;;;;;;10.75;8.15;;;16.70;44.10;;;;;;5110887;28;20066;-74
2022/03/23 02:07:11;;;;;;;9.02;8.10;;;16.80;44.20;;;;;;5111170;28;20051;-71
2022/03/23 02:09:37;;;;;;;9.60;8.35;;;16.70;44.20;;;;;;5112473;28;20067;-72
2022/03/23 02:12:07;;;;;;;11.02;8.82;;;16.70;44.10;;;;;;5111382;28;20071;-73
2022/03/23 02:14:32;;;;;;;9.10;8.23;;;16.70;44.10;;;;;;5111081;28;20062;-74
2022/03/23 02:16:58;;;;;;;8.55;7.72;;;16.70;44.20;;;;;;5112880;28;20040;-74
2022/03/23 02:19:24;;;;;;;10.38;8.35;;;16.70;44.20;;;;;;5111612;28;20403;-72
2022/03/23 02:21:52;;;;;;;9.18;8.27;;;16.70;44.10;;;;;;5111233;28;20044;-74
2022/03/23 02:24:23;;;;;;;7.50;6.75;;;16.70;44.10;;;;;;5110990;28;20386;-74
2022/03/23 02:26:49;;;;;;;;;;;16.70;44.10;;;;;;5112376;28;20031;-73
2022/03/23 02:29:15;;;;;;;7.55;6.78;;;16.70;44.30;;;;;;5110334;28;19922;-72
2022/03/23 02:31:41;;;;;;;7.13;6.40;;;16.80;44.00;;;;;;5111737;28;20075;-74
2022/03/23 02:34:10;;;;;;;6.75;6.05;;;17.00;43.80;;;;;;5110412;28;20043;-73
2022/03/23 02:36:36;;;;;;;7.05;6.38;;;17.10;43.60;;;;;;5111649;28;20084;-73
2022/03/23 02:39:02;;;;;;;7.07;6.30;;;17.30;43.50;;;;;;5110694;28;20422;-72
2022/03/23 02:41:31;;;;;;;8.20;7.13;;;17.60;42.90;;;;;;5110402;28;20476;-73
2022/03/23 02:43:57;;;;;;;6.63;6.03;;;17.90;42.50;;;;;;5110269;28;20036;-72
2022/03/23 02:46:23;;;;;;;6.88;5.50;;;18.20;42.00;;;;;;5110121;28;20039;-72
2022/03/23 02:48:51;;;;;;;5.53;4.97;;;18.50;41.60;;;;;;5110176;28;20092;-73
2022/03/23 02:51:18;;;;;;;6.05;5.53;;;18.70;41.10;;;;;;5110352;28;20044;-72
2022/03/23 03:02:35;;;;;;;6.18;5.63;;;19.50;39.90;;;;;;5111452;28;19920;-72
2022/03/23 03:05:01;;;;;;;5.15;4.63;;;19.80;39.30;;;;;;5109548;28;20051;-72
2022/03/23 03:07:27;;;;;;;5.65;5.05;;;20.00;39.10;;;;;;5110210;28;20036;-72
2022/03/23 03:09:52;;;;;;;6.03;4.75;;;20.10;38.80;;;;;;5111768;28;20480;-72
2022/03/23 03:12:18;;;;;;;4.82;4.35;;;20.20;38.50;;;;;;5110395;28;20122;-72
2022/03/23 03:14:44;;;;;;;4.68;4.25;;;20.40;38.30;;;;;;5110288;28;20047;-71
2022/03/23 03:17:13;;;;;;;4.25;3.80;;;20.50;38.00;;;;;;5111806;28;20115;-73
2022/03/23 03:19:38;;;;;;;4.63;4.22;;;20.60;37.80;;;;;;5110407;28;20046;-72
2022/03/23 03:22:05;;;;;;;5.28;4.78;;;20.70;37.50;;;;;;5110661;28;20044;-72
2022/03/23 03:24:30;;;;;;;5.03;4.53;;;20.80;37.30;;;;;;5110160;28;20597;-72
2022/03/23 03:26:56;;;;;;;5.57;5.07;;;20.90;37.20;;;;;;5109859;28;20126;-74
2022/03/23 03:29:23;;;;;;;6.10;4.43;;;21.00;37.00;;;;;;5110055;28;20398;-73
2022/03/23 03:31:49;;;;;;;5.00;4.53;;;21.10;36.80;;;;;;5111743;28;20241;-71
2022/03/23 03:34:15;;;;;;;5.00;4.60;;;21.20;36.60;;;;;;5110028;28;20490;-72
2022/03/23 03:36:41;;;;;;;5.45;4.07;;;21.30;36.50;;;;;;5111733;28;20112;-73
2022/03/23 03:39:10;;;;;;;4.85;4.45;;;21.40;36.30;;;;;;5110593;28;20386;-72
2022/03/23 03:41:35;;;;;;;5.50;5.00;;;21.40;36.20;;;;;;5111428;28;20127;-72
2022/03/23 03:44:02;;;;;;;4.38;3.97;;;21.50;36.10;;;;;;5110274;28;20177;-72
2022/03/23 03:46:28;;;;;;;5.30;4.80;;;21.60;36.00;;;;;;5109571;28;20059;-74
2022/03/23 03:48:53;;;;;;;4.55;3.80;;;21.60;35.80;;;;;;5111210;28;20463;-75
2022/03/23 03:51:19;;;;;;;5.03;4.22;;;21.70;35.70;;;;;;5113770;28;20400;-74
2022/03/23 03:53:44;;;;;;;5.03;4.50;;;21.70;35.60;;;;;;5113686;28;20047;-73
2022/03/23 03:56:10;;;;;;;5.18;4.68;;;21.80;35.50;;;;;;5113496;28;20479;-72
2022/03/23 03:58:42;;;;;;;5.13;4.72;;;21.90;35.40;;;;;;5113356;28;20056;-72
2022/03/23 04:01:14;;;;;;;5.10;4.60;;;21.90;35.20;;;;;;5113249;28;20035;-74
2022/03/23 04:03:40;;;;;;;4.95;3.75;;;22.00;35.20;;;;;;5114834;28;20040;-74
2022/03/23 04:06:07;;;;;;;4.63;4.22;;;22.00;35.00;;;;;;5113161;28;20047;-74
2022/03/23 04:08:33;;;;;;;5.28;4.88;;;22.10;35.00;;;;;;5114398;28;20043;-72
2022/03/23 04:10:58;;;;;;;4.25;3.85;;;22.10;34.80;;;;;;5113402;28;20500;-74
2022/03/23 04:13:24;;;;;;;5.22;4.72;;;22.20;34.80;;;;;;5114850;28;20035;-71
2022/03/23 04:15:50;;;;;;;4.45;4.05;;;22.20;34.70;;;;;;5114523;28;20036;-74
2022/03/23 04:18:16;;;;;;;4.78;4.30;;;22.20;34.60;;;;;;5113465;28;20105;-74
2022/03/23 04:20:41;;;;;;;4.10;3.75;;;22.30;34.60;;;;;;5113026;28;20445;-72
2022/03/23 04:23:07;;;;;;;5.13;4.63;;;22.30;34.50;;;;;;5113450;28;20043;-72
2022/03/23 04:25:35;;;;;;;5.10;4.28;;;22.40;34.40;;;;;;5114129;28;20146;-74
2022/03/23 04:28:01;;;;;;;4.88;4.28;;;22.40;34.30;;;;;;5112473;28;20039;-74
2022/03/23 04:30:31;;;;;;;4.60;4.10;;;22.40;34.20;;;;;;5112988;28;20042;-72
2022/03/23 04:32:58;;;;;;;5.13;4.63;;;22.40;34.10;;;;;;5113107;28;20039;-74
2022/03/23 04:35:24;;;;;;;4.78;4.38;;;22.40;34.10;;;;;;5095964;28;20127;-73
2022/03/23 04:37:50;;;;;;;5.82;4.55;;;22.40;34.10;;;;;;5112925;28;20078;-73
2022/03/23 04:40:17;;;;;;;4.78;4.38;;;22.30;34.20;;;;;;5114090;28;20100;-73
2022/03/23 04:42:44;;;;;;;4.97;4.35;;;22.20;34.20;;;;;;5114265;28;20047;-74
2022/03/23 04:45:13;;;;;;;5.53;4.60;;;22.20;34.30;;;;;;5113731;28;20143;-72
2022/03/23 04:47:39;;;;;;;5.23;4.73;;;22.10;34.40;;;;;;5112580;28;20054;-74
2022/03/23 04:50:08;;;;;;;5.22;4.72;;;22.10;34.40;;;;;;5113021;28;20055;-73
2022/03/23 04:52:35;;;;;;;5.40;4.88;;;22.10;34.40;;;;;;5112672;28;20073;-72
2022/03/23 04:55:01;;;;;;;4.68;4.28;;;22.20;34.30;;;;;;5112705;28;20046;-73
2022/03/23 04:57:28;;;;;;;4.93;4.40;;;22.20;34.20;;;;;;5112513;28;20047;-73
2022/03/23 04:59:54;;;;;;;5.38;4.75;;;22.30;34.10;;;;;;5113506;28;20028;-72
2022/03/23 05:02:20;;;;;;;6.63;4.40;;;22.40;34.00;;;;;;5112442;28;20119;-72
2022/03/23 05:04:46;;;;;;;4.95;4.55;;;22.40;33.90;;;;;;5112909;28;20143;-73
2022/03/23 05:07:13;;;;;;;5.93;4.50;;;22.40;33.80;;;;;;5113702;28;20406;-74
2022/03/23 05:09:39;;;;;;;4.55;4.05;;;22.40;33.80;;;;;;5114025;28;20036;-75
2022/03/23 05:12:05;;;;;;;4.68;4.15;;;22.50;33.70;;;;;;5111971;28;20047;-72
2022/03/23 05:14:31;;;;;;;7.10;4.72;;;22.50;33.70;;;;;;5112018;28;20088;-74
2022/03/23 05:16:56;;;;;;;5.65;4.78;;;22.60;33.60;;;;;;5111778;28;20040;-73
2022/03/23 05:19:22;;;;;;;5.70;4.90;;;22.70;33.50;;;;;;5112937;28;20039;-74
2022/03/23 05:21:48;;;;;;;4.70;4.30;;;22.80;33.40;;;;;;5112914;28;20047;-74
2022/03/23 05:24:14;;;;;;;4.72;4.05;;;22.90;33.20;;;;;;5112358;28;20091;-72
2022/03/23 05:26:40;;;;;;;5.25;4.75;;;23.00;33.10;;;;;;5113019;28;20071;-74
2022/03/23 05:29:05;;;;;;;4.90;4.40;;;23.10;32.80;;;;;;5112046;28;20122;-72
2022/03/23 05:31:31;;;;;;;4.57;4.18;;;23.30;32.60;;;;;;5112625;28;20467;-74
2022/03/23 05:33:57;;;;;;;5.72;4.07;;;23.40;32.50;;;;;;5111601;28;20044;-71
2022/03/23 05:36:22;;;;;;;5.25;4.70;;;23.50;32.30;;;;;;5111738;28;20031;-71
2022/03/23 05:38:48;;;;;;;5.50;4.07;;;23.60;32.20;;;;;;5111374;28;20410;-75
2022/03/23 05:41:14;;;;;;;5.32;4.72;;;23.70;32.00;;;;;;5111651;28;20395;-74
2022/03/23 05:43:40;;;;;;;4.82;4.35;;;23.70;31.90;;;;;;5113111;28;20051;-74
2022/03/23 05:46:05;;;;;;;5.68;4.47;;;23.80;31.70;;;;;;5112364;28;20526;-74
2022/03/23 05:48:31;;;;;;;5.18;4.68;;;23.80;31.60;;;;;;5113087;28;20507;-74
2022/03/23 05:50:57;;;;;;;4.47;4.07;;;23.80;31.50;;;;;;5111741;28;20096;-75
2022/03/23 05:53:22;;;;;;;4.10;3.80;;;23.90;31.50;;;;;;5111164;28;20134;-71
2022/03/23 05:55:48;;;;;;;4.80;4.30;;;23.90;31.40;;;;;;5112099;28;20119;-71
2022/03/23 05:58:14;;;;;;;4.25;3.85;;;23.90;31.20;;;;;;5093959;28;20600;-74
2022/03/23 06:00:40;;;;;;;4.78;4.35;;;24.00;31.10;;;;;;5110812;28;20054;-74
2022/03/23 06:03:08;;;;;;;4.72;4.32;;;24.00;31.00;;;;;;5111951;28;20066;-74
2022/03/23 06:05:34;;;;;;;5.00;3.95;;;24.10;30.90;;;;;;5111452;28;20122;-74
2022/03/23 06:08:00;;;;;;;4.60;4.20;;;24.10;30.80;;;;;;5111058;28;20086;-74
2022/03/23 06:10:25;;;;;;;5.22;4.22;;;24.10;30.70;;;;;;5111083;28;20382;-71
2022/03/23 06:12:51;;;;;;;5.40;4.45;;;24.20;30.50;;;;;;5110755;28;20562;-74
2022/03/23 06:15:18;;;;;;;4.82;4.43;;;24.20;30.30;;;;;;5110873;28;20075;-72
2022/03/23 06:17:46;;;;;;;4.20;3.90;;;24.30;30.30;;;;;;5112203;28;20071;-74
2022/03/23 06:20:14;;;;;;;5.55;5.00;;;24.40;30.10;;;;;;5110657;28;20043;-74
2022/03/23 06:22:40;;;;;;;4.63;4.20;;;24.50;30.00;;;;;;5110844;28;20036;-71
2022/03/23 06:25:07;;;;;;;4.72;4.28;;;24.50;30.00;;;;;;5111483;28;20038;-72
2022/03/23 06:27:34;;;;;;;6.10;4.50;;;24.60;29.90;;;;;;5112363;28;20038;-71
2022/03/23 06:30:00;;;;;;;5.32;4.22;;;24.70;29.80;;;;;;5110986;28;20436;-72
2022/03/23 06:32:25;;;;;;;5.82;4.70;;;24.80;29.70;;;;;;5109720;28;20031;-77
2022/03/23 06:34:51;;;;;;;5.00;4.55;;;24.80;29.90;;;;;;5109736;28;20641;-75
2022/03/23 06:37:16;;;;;;;5.35;4.28;;;24.70;30.10;;;;;;5111002;28;20069;-78
2022/03/23 06:39:42;;;;;;;5.70;5.20;;;24.60;30.30;;;;;;5111594;28;20578;-78
2022/03/23 06:42:08;;;;;;;5.15;4.65;;;24.40;30.50;;;;;;5110029;28;20381;-77
2022/03/23 06:44:33;;;;;;;5.90;5.40;;;24.20;30.90;;;;;;5110500;28;20151;-76
2022/03/23 06:47:02;;;;;;;5.68;5.15;;;24.10;31.30;;;;;;5110675;28;20035;-77
2022/03/23 06:49:28;;;;;;;7.97;4.90;;;23.90;31.50;;;;;;5106420;28;20030;-77
2022/03/23 06:51:53;;;;;;;5.40;4.95;;;23.80;31.70;;;;;;5109585;28;20046;-69
2022/03/23 06:54:19;;;;;;;7.97;5.32;;;23.80;31.70;;;;;;5106560;28;20665;-69
2022/03/23 06:56:45;;;;;;;7.03;6.03;;;23.80;31.70;;;;;;5105731;28;20039;-77
2022/03/23 06:59:10;;;;;;;10.95;7.13;;;23.80;31.80;;;;;;5106702;28;20092;-78
2022/03/23 07:01:36;;;;;;;6.80;6.20;;;23.70;31.70;;;;;;5105932;28;20123;-74
2022/03/23 07:04:01;;;;;;;6.88;6.18;;;23.70;32.60;;;;;;5098292;28;20173;-70
2022/03/23 07:06:27;;;;;;;6.97;6.07;;;23.70;31.90;;;;;;5103392;28;20484;-69
2022/03/23 07:11:38;;;;;;;12.70;7.57;;;23.70;31.60;;;;;;5095824;28;20036;-68
2022/03/23 07:14:04;;;;;;;10.63;8.93;;;23.70;31.60;;;;;;5103529;28;20649;-68
2022/03/23 07:16:29;;;;;;;11.63;9.88;;;23.70;31.60;;;;;;5101327;28;20717;-68
2022/03/23 07:18:55;;;;;;;12.93;9.32;;;23.60;31.50;;;;;;5102957;28;20663;-68
2022/03/23 07:21:21;;;;;;;10.68;8.38;;;23.60;31.50;;;;;;5102418;28;20024;-68
2022/03/23 07:23:49;;;;;;;11.45;9.60;;;23.50;31.70;;;;;;5111224;27;20035;-72
2022/03/23 07:26:16;;;;;;;12.95;11.65;;;23.50;32.80;;;;;;5093514;27;20044;-71
2022/03/23 07:28:42;;;;;;;14.35;11.18;;;23.40;32.10;;;;;;5095658;28;20040;-72
2022/03/23 07:31:08;;;;;;;10.95;9.82;;;23.40;32.70;;;;;;5093590;28;20078;-74
2022/03/23 07:33:34;;;;;;;13.65;8.73;;;23.40;33.10;;;;;;5097710;27;20035;-71
2022/03/23 07:36:01;;;;;;;14.68;8.82;;;23.40;33.10;;;;;;5105688;27;20116;-73
2022/03/23 07:38:26;;;;;;;10.65;8.50;;;23.50;33.30;;;;;;5090221;28;20079;-73
2022/03/23 07:40:52;;;;;;;8.65;7.38;;;23.50;33.40;;;;;;5096400;28;20800;-76
2022/03/23 07:43:18;;;;;;;11.82;9.73;;;23.40;33.50;;;;;;5095969;27;20066;-75
2022/03/23 07:45:43;;;;;;;24.38;15.63;;;23.40;33.60;;;;;;5097545;28;20066;-68
2022/03/23 07:48:09;;;;;;;17.33;13.73;;;23.30;33.40;;;;;;5095017;27;20043;-73
2022/03/23 07:50:35;;;;;;;16.13;14.40;;;23.20;33.50;;;;;;5094116;28;20036;-74
2022/03/23 07:53:00;;;;;;;14.70;13.18;;;23.10;33.70;;;;;;5097882;28;20044;-76
2022/03/23 07:55:26;;;;;;;15.85;13.38;;;23.00;33.90;;;;;;5097676;28;20039;-77
2022/03/23 07:57:52;;;;;;;14.75;13.02;;;22.80;34.30;;;;;;5094873;27;20720;-77
2022/03/23 08:00:21;;;;;;;13.82;11.27;;;22.70;34.50;;;;;;5090855;28;20032;-74
2022/03/23 08:02:47;;;;;;;14.20;10.60;;;22.60;34.60;;;;;;5089845;27;20086;-73
2022/03/23 08:05:12;;;;;;;12.30;11.07;;;22.50;34.90;;;;;;5103993;27;20083;-72
2022/03/23 08:07:38;;;;;;;12.68;10.13;;;22.40;35.10;;;;;;5095843;27;20097;-70
2022/03/23 08:10:05;;;;;;;14.05;10.75;;;22.30;35.30;;;;;;5093445;28;20043;-76
2022/03/23 08:12:30;;;;;;;12.25;10.30;;;22.20;36.20;;;;;;5096592;28;20439;-70
2022/03/23 08:14:59;;;;;;;11.55;9.45;;;22.20;35.60;;;;;;5107191;27;20054;-70
2022/03/23 08:17:24;;;;;;;12.93;9.95;;;22.10;35.80;;;;;;5092292;27;20043;-73
2022/03/23 08:20:32;;;;;;;9.65;8.38;;;22.00;35.70;;;;;;5098209;28;20058;-73
2022/03/23 08:22:36;;;;;;;10.52;9.38;;;21.90;35.90;;;;;;5088755;28;20050;-72
2022/03/23 08:25:05;;;;;;;11.13;9.30;;;21.90;36.10;;;;;;5094946;28;20066;-73
2022/03/23 08:27:31;;;;;;;9.75;8.38;;;21.80;36.20;;;;;;5094146;27;20039;-75
2022/03/23 08:29:57;;;;;;;9.48;7.95;;;21.70;36.30;;;;;;5097332;28;20081;-70
2022/03/23 08:32:22;;;;;;;10.55;8.38;;;21.70;36.50;;;;;;5092888;27;20081;-75
2022/03/23 08:34:50;;;;;;;9.80;8.50;;;21.60;36.50;;;;;;5090742;28;20032;-74
2022/03/23 08:37:16;;;;;;;12.27;8.48;;;21.50;36.50;;;;;;5096286;27;20632;-72
2022/03/23 08:39:41;;;;;;;12.55;8.52;;;21.40;36.60;;;;;;5094445;27;20085;-71
2022/03/23 08:42:07;;;;;;;9.15;7.97;;;21.40;36.70;;;;;;5093208;28;20483;-75
2022/03/23 08:44:33;;;;;;;10.90;8.98;;;21.30;36.60;;;;;;5089001;28;20032;-70
2022/03/23 08:46:58;;;;;;;13.18;8.18;;;21.30;36.70;;;;;;5097104;28;20030;-71
2022/03/23 08:49:24;;;;;;;10.15;9.13;;;21.20;36.70;;;;;;5093443;28;20066;-73
2022/03/23 08:51:49;;;;;;;10.35;8.70;;;21.20;36.70;;;;;;5090564;28;20061;-72
2022/03/23 08:54:15;;;;;;;10.38;8.32;;;21.10;36.70;;;;;;5093137;28;20048;-75
2022/03/23 08:56:44;;;;;;;10.57;7.63;;;21.10;36.80;;;;;;5091129;28;20506;-75
2022/03/23 08:59:10;;;;;;;11.70;8.02;;;21.10;37.20;;;;;;5095303;28;20043;-75
2022/03/23 09:01:35;;;;;;;8.80;7.90;;;21.00;37.30;;;;;;5094007;27;20044;-72
2022/03/23 09:04:04;;;;;;;9.00;8.20;;;21.00;37.40;;;;;;5103091;27;20048;-75
2022/03/23 09:06:35;;;;;;;10.85;7.68;;;20.90;37.30;;;;;;5108708;27;20056;-74
2022/03/23 09:09:01;;;;;;;8.25;7.30;;;20.90;37.30;;;;;;5108236;27;20040;-73
2022/03/23 09:11:26;;;;;;;9.65;7.65;;;20.80;37.30;;;;;;5094032;28;20050;-74
2022/03/23 09:13:52;;;;;;;7.43;6.78;;;20.80;37.30;;;;;;5106435;27;20574;-74
2022/03/23 09:16:20;;;;;;;7.82;7.03;;;20.70;37.50;;;;;;5097393;27;20039;-73
2022/03/23 09:18:46;;;;;;;13.00;7.25;;;20.70;37.60;;;;;;5094385;28;20043;-71
2022/03/23 09:21:13;;;;;;;11.35;6.82;;;20.70;37.50;;;;;;5093933;27;20576;-74
2022/03/23 09:23:40;;;;;;;9.43;7.30;;;20.60;37.40;;;;;;5093396;28;20104;-72
2022/03/23 09:26:09;;;;;;;8.93;8.02;;;20.60;37.30;;;;;;5102886;27;20084;-79
2022/03/23 09:28:35;;;;;;;13.82;8.02;;;20.60;37.00;;;;;;5093243;28;20115;-76
2022/03/23 09:31:01;;;;;;;9.00;7.63;;;20.50;36.60;;;;;;5096164;28;20122;-72
2022/03/23 09:33:28;;;;;;;13.00;8.57;;;20.50;36.30;;;;;;5092322;27;20051;-75
2022/03/23 09:35:54;;;;;;;10.98;8.13;;;20.50;35.70;;;;;;5105828;27;20047;-71
2022/03/23 09:38:20;;;;;;;10.13;7.72;;;20.40;35.60;;;;;;5096108;28;20040;-73
2022/03/23 09:40:49;;;;;;;9.65;7.25;;;20.40;35.80;;;;;;5089760;28;20448;-72
2022/03/23 09:43:19;;;;;;;7.47;6.72;;;20.40;35.80;;;;;;5089520;28;20036;-73
2022/03/23 09:48:33;;;;;;;13.15;7.38;;;20.30;35.90;;;;;;5066951;27;20921;-76
2022/03/23 09:50:58;;;;;;;8.20;6.80;;;20.30;35.80;;;;;;5052087;28;20389;-74
2022/03/23 09:53:25;;;;;;;8.00;6.20;;;20.40;35.70;;;;;;5065234;28;20045;-74
2022/03/23 09:55:52;;;;;;;10.48;7.35;;;20.40;35.60;;;;;;5049701;28;20127;-75
2022/03/23 09:58:18;;;;;;;10.48;6.35;;;20.40;35.50;;;;;;5046068;28;20052;-74
2022/03/23 10:00:44;;;;;;;7.57;5.75;;;20.50;35.60;;;;;;5050855;28;20051;-72
2022/03/23 10:06:28;;;;;;;7.63;5.93;;;20.50;35.40;;;;;;5042676;27;20414;-69
2022/03/23 10:09:33;;;;;;;7.82;5.20;;;20.70;34.80;;;;;;5055480;28;20056;-72
2022/03/23 10:12:39;;;;;;;5.75;4.82;;;20.80;34.70;;;;;;5025218;28;20600;-72
2022/03/23 10:20:43;;;;;;;6.55;4.22;;;21.10;35.00;;;;;;5119775;27;1278483;-72
2022/03/23 10:23:09;;;;;;;5.78;4.68;;;21.10;34.80;;;;;;5128212;27;20042;-72
2022/03/23 10:25:37;;;;;;;10.27;4.97;;;21.20;34.90;;;;;;5128125;27;20750;-70
2022/03/23 10:28:13;;;;;;;10.10;4.72;;;21.20;34.70;;;;;;5127649;27;20046;-69
2022/03/23 10:30:39;;;;;;;7.75;5.90;;;21.30;34.60;;;;;;5135234;27;20042;-75
2022/03/23 10:33:22;;;;;;;7.13;5.90;;;21.40;34.30;;;;;;5143317;27;20488;-72
2022/03/23 10:35:49;;;;;;;7.63;5.13;;;21.30;33.90;;;;;;5115541;27;20538;-71
2022/03/23 10:38:20;;;;;;;6.57;4.95;;;21.40;34.10;;;;;;5118377;27;20050;-72
2022/03/23 10:40:51;;;;;;;10.20;5.55;;;21.40;33.90;;;;;;5147328;27;20338;-68
2022/03/23 10:43:20;;;;;;;8.27;5.35;;;21.50;34.00;;;;;;5130251;27;20121;-72
2022/03/23 10:45:47;;;;;;;10.15;6.00;;;21.50;34.10;;;;;;5132305;27;20043;-72
2022/03/23 10:48:17;;;;;;;7.22;5.60;;;21.50;33.80;;;;;;5135018;27;20793;-72
2022/03/23 10:50:52;;;;;;;5.60;4.90;;;21.50;33.70;;;;;;5148622;27;20042;-73
2022/03/23 10:53:32;;;;;;;8.35;4.78;;;21.50;33.70;;;;;;5124035;27;20035;-74
2022/03/23 10:55:58;;;;;;;7.43;5.50;;;21.50;33.60;;;;;;5128348;27;20060;-70
2022/03/23 10:58:26;;;;;;;8.48;5.28;;;21.50;33.60;;;;;;5132429;27;20086;-72
2022/03/23 11:01:02;;;;;;;8.07;5.55;;;21.50;33.60;;;;;;5132513;27;20031;-73
2022/03/23 11:06:27;;;;;;;9.73;4.45;;;21.50;33.70;;;;;;5083558;27;20440;-74
2022/03/23 11:08:52;;;;;;;10.10;4.80;;;21.50;34.00;;;;;;5095225;28;20682;-73
2022/03/23 11:16:51;;;;;;;8.68;4.97;;;21.50;34.30;;;;;;5059898;28;20048;-73
2022/03/23 11:24:41;;;;;;;9.05;8.25;;;21.50;34.50;;;;;;5098919;27;20366;-73
2022/03/23 11:27:08;;;;;;;9.35;6.97;;;21.50;32.00;;;;;;5104358;28;20105;-73
2022/03/23 11:29:36;;;;;;;11.90;7.78;;;21.50;31.90;;;;;;5085943;28;20048;-73
2022/03/23 11:32:07;;;;;;;11.05;7.05;;;21.40;32.20;;;;;;5095630;28;20044;-73
2022/03/23 11:34:37;;;;;;;10.48;8.02;;;21.40;32.20;;;;;;5106763;28;20576;-72
2022/03/23 11:37:03;;;;;;;;;;;21.40;31.50;;;;;;5102707;28;20647;-68
2022/03/23 11:39:30;;;;;;;8.02;7.22;;;21.30;30.40;;;;;;5101125;28;19973;-67
2022/03/23 11:41:58;;;;;;;9.38;6.65;;;21.30;31.10;;;;;;5098181;28;20078;-65
2022/03/23 11:44:25;;;;;;;9.82;6.82;;;21.30;31.00;;;;;;5098073;28;20036;-68
2022/03/23 11:47:00;;;;;;;9.15;6.55;;;21.20;30.90;;;;;;5101045;28;20024;-67
2022/03/23 11:49:49;;;;;;;10.55;6.68;;;21.20;30.90;;;;;;5101973;28;20089;-69
2022/03/23 11:58:03;;;;;;;6.18;5.50;;;21.20;31.40;;;;;;5103665;27;20480;-70
2022/03/23 12:00:37;;;;;;;7.60;5.13;;;21.20;31.90;;;;;;5106627;28;20036;-74
2022/03/23 12:03:12;;;;;;;9.55;5.95;;;21.20;32.00;;;;;;5110028;28;20078;-72
2022/03/23 12:05:53;;;;;;;7.15;5.40;;;21.20;32.10;;;;;;5110823;28;20036;-72
2022/03/23 12:08:59;;;;;;;7.47;5.22;;;21.20;32.10;;;;;;5109160;28;20031;-68
2022/03/23 12:17:10;;;;;;;7.75;6.25;;;21.20;30.60;;;;;;5124185;27;20403;-68
2022/03/23 12:19:59;;;;;;;;;;;21.20;30.30;;;;;;5123070;28;20043;-67
2022/03/23 12:23:05;;;;;;;9.77;6.05;;;21.10;30.10;;;;;;5136255;27;19916;-67
2022/03/23 12:25:38;;;;;;;11.00;6.68;;;21.10;30.20;;;;;;5122577;28;20050;-68
2022/03/23 12:31:00;;;;;;;10.15;7.80;;;21.10;30.10;;;;;;5120726;27;20410;-70
2022/03/23 12:33:28;;;;;;;7.85;6.93;;;21.10;29.70;;;;;;5119586;28;20054;-69
2022/03/23 12:36:03;;;;;;;9.02;7.43;;;21.10;29.70;;;;;;5123020;28;20047;-71
2022/03/23 12:38:29;;;;;;;10.60;6.55;;;21.00;30.10;;;;;;5122053;28;20047;-67
2022/03/23 12:41:06;;;;;;;7.05;6.40;;;21.00;29.90;;;;;;5122301;28;20072;-69
2022/03/23 12:46:22;;;;;;;12.25;7.30;;;21.00;29.90;;;;;;5102526;27;20930;-71
2022/03/23 12:57:49;;;;;;;7.88;6.18;;;21.00;30.00;;;;;;5084256;28;20119;-74
2022/03/23 13:00:26;;;;;;;10.00;6.15;;;21.00;30.10;;;;;;5085130;28;20279;-74
2022/03/23 13:08:49;;;;;;;10.35;6.07;;;21.00;30.40;;;;;;5150350;27;1168887;-74
2022/03/23 13:14:00;;;;;;;7.53;4.55;;;21.00;30.70;;;;;;5104933;27;20416;-74
2022/03/23 13:16:29;;;;;;;7.88;4.85;;;21.00;30.70;;;;;;5087189;28;20040;-74
2022/03/23 13:18:59;;;;;;;8.60;4.22;;;21.00;30.70;;;;;;5087289;28;20100;-75
2022/03/23 13:21:28;;;;;;;6.97;4.50;;;21.00;30.70;;;;;;5087032;28;20047;-74
2022/03/23 13:23:58;;;;;;;8.98;4.68;;;21.00;30.70;;;;;;5087630;28;20689;-75
2022/03/23 13:26:25;;;;;;;6.57;4.10;;;20.90;30.60;;;;;;5086936;28;20044;-75
2022/03/23 13:28:55;;;;;;;8.55;5.18;;;20.90;30.60;;;;;;5105630;28;20040;-74
2022/03/23 13:34:09;;;;;;;8.88;5.25;;;20.90;30.70;;;;;;5126115;27;20346;-74
2022/03/23 13:36:37;;;;;;;8.15;3.97;;;20.90;30.70;;;;;;5124725;28;20031;-74
2022/03/23 13:39:10;;;;;;;7.38;3.70;;;20.90;30.80;;;;;;5124931;28;20065;-74
2022/03/23 13:44:56;;;;;;;3.92;2.90;;;20.90;30.90;;;;;;5125361;28;20483;-74
2022/03/23 13:47:11;;;;;;;7.15;4.22;;;20.90;30.90;;;;;;5125250;28;20122;-74
2022/03/23 13:49:45;;;;;;;5.20;3.15;;;20.90;30.80;;;;;;5124622;28;20475;-74
2022/03/23 13:52:11;;;;;;;10.68;3.25;;;20.90;30.80;;;;;;5125174;28;20036;-70
2022/03/23 13:54:43;;;;;;;5.50;3.17;;;20.90;30.90;;;;;;5124795;28;20083;-69
2022/03/23 13:57:10;;;;;;;5.78;3.42;;;20.90;30.90;;;;;;5126010;27;20042;-73
2022/03/23 13:59:36;;;;;;;5.65;3.63;;;20.90;30.90;;;;;;5126639;27;20040;-68
2022/03/23 14:02:02;;;;;;;12.30;3.92;;;20.90;30.80;;;;;;5159117;27;20043;-68
2022/03/23 14:04:31;;;;;;;8.23;3.30;;;20.80;30.70;;;;;;5125335;28;20126;-70
2022/03/23 14:06:58;;;;;;;7.47;3.35;;;20.80;30.80;;;;;;5129241;27;20404;-68